In Rescue
 
Open Full Screen Window  High Contrast Mode
Wind Gusting 00 knots
11
April 19, 2021 8:41 PM CDT
Weather Information
Wind Direction
  350 °
Wind Speed
  11 kt (13 mph)
Wind Gust
  00 kt (0 mph)
Altimeter
30.14 in
Visibility
10 SM
Temperature
04° C
39° F
Dewpoint
-11° C
12° F
Humidity
33%
1hr Rain Fall
00.00 in.
24hr Rain Fall
00.00 in.
Sky Condition
Overcast @ 7,500 ft
VFR

METAR KDXX 200141Z AUTO 35011KT 10SM OVC075 04/M11 A3014 RMK AO2 PWINO

FAA Disclaimer: The data displayed is for advisory purposes only and is not to be used for flight planning or operations.